createdAt,value
2018-11-12T00:00:43.270Z,6.13
2018-11-12T00:02:47.446Z,7.40
2018-11-12T00:04:49.838Z,6.27
2018-11-12T00:06:52.008Z,7.90
2018-11-12T00:08:54.183Z,12.30
2018-11-12T00:10:56.511Z,7.27
2018-11-12T00:12:58.654Z,6.63
2018-11-12T00:15:00.804Z,12.70
2018-11-12T00:17:02.972Z,11.17
2018-11-12T00:19:05.194Z,9.03
2018-11-12T00:21:07.334Z,7.60
2018-11-12T00:23:09.535Z,11.47
2018-11-12T00:25:11.739Z,9.07
2018-11-12T00:27:13.895Z,7.83
2018-11-12T00:29:16.153Z,9.00
2018-11-12T00:31:18.311Z,7.47
2018-11-12T00:33:20.512Z,6.63
2018-11-12T00:35:22.673Z,10.47
2018-11-12T00:37:24.837Z,8.30
2018-11-12T00:39:27.005Z,7.43
2018-11-12T00:41:29.182Z,8.80
2018-11-12T00:43:31.368Z,7.87
2018-11-12T00:45:33.523Z,7.97
2018-11-12T00:47:35.771Z,7.63
2018-11-12T00:49:37.912Z,10.50
2018-11-12T00:51:40.072Z,11.60
2018-11-12T00:53:42.226Z,8.30
2018-11-12T00:55:44.389Z,12.87
2018-11-12T00:57:46.548Z,10.10
2018-11-12T00:59:48.703Z,8.70
2018-11-12T01:01:51.082Z,7.30
2018-11-12T01:03:53.333Z,8.67
2018-11-12T01:05:55.690Z,12.53
2018-11-12T01:07:57.906Z,8.73
2018-11-12T01:10:00.242Z,10.33
2018-11-12T01:12:02.422Z,9.27
2018-11-12T01:14:04.586Z,7.40
2018-11-12T01:16:07.102Z,8.37
2018-11-12T01:18:09.299Z,7.70
2018-11-12T01:20:12.684Z,13.87
2018-11-12T01:22:14.833Z,7.87
2018-11-12T01:24:17.048Z,7.70
2018-11-12T01:26:19.187Z,7.50
2018-11-12T01:28:21.341Z,8.23
2018-11-12T01:30:23.530Z,12.93
2018-11-12T01:32:25.721Z,9.70
2018-11-12T01:34:27.872Z,8.63
2018-11-12T01:36:30.031Z,7.57
2018-11-12T01:38:32.330Z,8.23
2018-11-12T01:40:34.482Z,9.57
2018-11-12T01:42:36.874Z,6.53
2018-11-12T01:44:39.042Z,9.03
2018-11-12T01:46:41.197Z,8.33
2018-11-12T01:48:43.346Z,8.07
2018-11-12T01:50:45.499Z,10.43
2018-11-12T01:52:48.433Z,7.57
2018-11-12T01:54:50.610Z,8.57
2018-11-12T01:56:52.766Z,13.07
2018-11-12T01:58:54.921Z,7.67
2018-11-12T02:00:57.069Z,6.87
2018-11-12T02:02:59.202Z,6.93
2018-11-12T02:05:01.407Z,7.10
2018-11-12T02:07:03.582Z,7.07
2018-11-12T02:09:07.104Z,9.37
2018-11-12T02:11:09.230Z,7.93
2018-11-12T02:13:11.399Z,8.50
2018-11-12T02:15:16.017Z,7.40
2018-11-12T02:17:18.413Z,8.13
2018-11-12T02:19:20.590Z,7.27
2018-11-12T02:21:22.765Z,9.87
2018-11-12T02:23:25.339Z,7.67
2018-11-12T02:25:27.506Z,8.83
2018-11-12T02:27:29.670Z,6.90
2018-11-12T02:29:31.890Z,6.70
2018-11-12T02:31:34.002Z,6.60
2018-11-12T02:33:36.176Z,8.73
2018-11-12T02:35:38.386Z,7.07
2018-11-12T02:37:40.553Z,6.60
2018-11-12T02:39:42.704Z,7.90
2018-11-12T02:41:44.859Z,8.37
2018-11-12T02:43:47.024Z,6.80
2018-11-12T02:45:49.310Z,7.70
2018-11-12T02:47:51.469Z,11.50
2018-11-12T02:49:53.612Z,6.13
2018-11-12T02:51:55.798Z,7.23
2018-11-12T02:53:57.978Z,6.40
2018-11-12T02:56:00.194Z,11.60
2018-11-12T02:58:02.384Z,8.07
2018-11-12T03:00:06.799Z,5.47
2018-11-12T03:02:08.962Z,8.50
2018-11-12T03:04:11.203Z,6.20
2018-11-12T03:06:13.347Z,6.87
2018-11-12T03:08:15.486Z,7.17
2018-11-12T03:10:19.250Z,5.60
2018-11-12T03:12:21.421Z,8.27
2018-11-12T03:14:23.594Z,7.10
2018-11-12T03:16:25.735Z,5.87
2018-11-12T03:18:27.878Z,6.80
2018-11-12T03:20:30.059Z,6.43
2018-11-12T03:22:32.222Z,5.73
2018-11-12T03:24:34.389Z,6.10
2018-11-12T03:26:36.873Z,6.83
2018-11-12T03:28:39.051Z,7.87
2018-11-12T03:30:41.206Z,9.33
2018-11-12T03:32:44.171Z,8.90
2018-11-12T03:34:46.332Z,7.00
2018-11-12T03:36:48.479Z,6.93
2018-11-12T03:38:50.673Z,9.53
2018-11-12T03:40:52.828Z,13.23
2018-11-12T03:42:55.003Z,8.37
2018-11-12T03:44:57.201Z,9.23
2018-11-12T03:46:59.346Z,9.57
2018-11-12T03:49:01.513Z,12.00
2018-11-12T03:51:03.869Z,9.03
2018-11-12T03:53:06.011Z,10.13
2018-11-12T03:55:09.039Z,10.53
2018-11-12T03:57:11.210Z,12.60
2018-11-12T03:59:13.391Z,11.30
2018-11-12T04:01:15.542Z,10.37
2018-11-12T04:03:17.701Z,11.93
2018-11-12T04:05:19.846Z,12.17
2018-11-12T04:07:21.993Z,9.53
2018-11-12T04:09:24.145Z,11.77
2018-11-12T04:11:26.284Z,10.50
2018-11-12T04:13:28.447Z,11.17
2018-11-12T04:15:30.592Z,10.27
2018-11-12T04:17:32.733Z,9.77
2018-11-12T04:19:34.904Z,10.10
2018-11-12T04:21:37.077Z,10.53
2018-11-12T04:23:39.241Z,10.33
2018-11-12T04:25:41.391Z,12.87
2018-11-12T04:27:43.565Z,10.83
2018-11-12T04:29:45.735Z,12.10
2018-11-12T04:31:47.874Z,13.50
2018-11-12T04:33:50.011Z,13.50
2018-11-12T04:35:52.466Z,12.10
2018-11-12T04:37:54.619Z,10.00
2018-11-12T04:39:56.782Z,9.90
2018-11-12T04:41:58.984Z,11.60
2018-11-12T04:44:01.151Z,13.87
2018-11-12T04:46:03.346Z,10.43
2018-11-12T04:48:05.543Z,9.33
2018-11-12T04:50:08.667Z,10.47
2018-11-12T04:52:10.821Z,10.77
2018-11-12T04:54:13.785Z,9.57
2018-11-12T04:56:16.179Z,9.97
2018-11-12T04:58:18.499Z,12.33
2018-11-12T05:00:22.926Z,11.47
2018-11-12T05:02:26.711Z,10.40
2018-11-12T05:04:28.866Z,9.67
2018-11-12T05:06:31.007Z,11.27
2018-11-12T05:08:33.173Z,9.40
2018-11-12T05:10:35.578Z,8.87
2018-11-12T05:12:38.438Z,9.37
2018-11-12T05:14:40.602Z,9.70
2018-11-12T05:16:42.945Z,11.90
2018-11-12T05:18:45.099Z,10.90
2018-11-12T05:20:47.252Z,10.63
2018-11-12T05:22:49.458Z,12.20
2018-11-12T05:24:51.644Z,11.80
2018-11-12T05:26:53.823Z,10.23
2018-11-12T05:28:56.006Z,9.63
2018-11-12T05:30:58.165Z,15.23
2018-11-12T05:33:00.335Z,11.07
2018-11-12T05:35:02.898Z,12.23
2018-11-12T05:37:05.238Z,11.43
2018-11-12T05:39:08.573Z,11.17
2018-11-12T05:41:10.899Z,10.60
2018-11-12T05:43:13.135Z,12.40
2018-11-12T05:45:16.401Z,12.37
2018-11-12T05:47:18.587Z,9.10
2018-11-12T05:49:20.762Z,13.93
2018-11-12T05:51:22.955Z,10.93
2018-11-12T05:53:25.152Z,14.90
2018-11-12T05:55:28.322Z,10.60
2018-11-12T05:57:30.521Z,12.00
2018-11-12T05:59:32.731Z,11.83
2018-11-12T06:01:34.919Z,11.37
2018-11-12T06:03:37.123Z,10.70
2018-11-12T06:05:39.295Z,10.60
2018-11-12T06:07:41.828Z,11.13
2018-11-12T06:09:43.986Z,12.23
2018-11-12T06:11:46.157Z,12.87
2018-11-12T06:13:48.330Z,10.63
2018-11-12T06:15:50.573Z,10.40
2018-11-12T06:17:52.829Z,14.17
2018-11-12T06:19:55.169Z,11.50
2018-11-12T06:21:57.355Z,12.50
2018-11-12T06:23:59.572Z,12.53
2018-11-12T06:26:01.808Z,11.90
2018-11-12T06:28:04.055Z,10.13
2018-11-12T06:30:07.568Z,12.33
2018-11-12T06:32:09.973Z,10.50
2018-11-12T06:34:12.121Z,12.93
2018-11-12T06:36:14.342Z,12.70
2018-11-12T06:38:16.546Z,10.87
2018-11-12T06:40:20.943Z,10.17
2018-11-12T06:42:23.127Z,13.83
2018-11-12T06:44:25.372Z,9.43
2018-11-12T06:46:27.537Z,13.43
2018-11-12T06:48:29.687Z,12.27
2018-11-12T06:50:32.909Z,9.67
2018-11-12T06:52:35.065Z,11.23
2018-11-12T06:54:37.228Z,13.10
2018-11-12T06:56:40.092Z,9.47
2018-11-12T06:58:42.312Z,10.70
2018-11-12T07:00:44.541Z,9.93
2018-11-12T07:02:46.692Z,9.43
2018-11-12T07:04:48.869Z,10.03
2018-11-12T07:06:51.357Z,11.77
2018-11-12T07:08:53.715Z,8.90
2018-11-12T07:10:55.870Z,9.20
2018-11-12T07:12:58.852Z,10.40
2018-11-12T07:15:01.075Z,8.33
2018-11-12T07:17:03.281Z,7.97
2018-11-12T07:19:05.865Z,12.03
2018-11-12T07:21:07.946Z,10.20
2018-11-12T07:23:10.087Z,10.13
2018-11-12T07:25:13.094Z,9.40
2018-11-12T07:27:15.226Z,9.23
2018-11-12T07:29:17.391Z,8.80
2018-11-12T07:31:19.653Z,8.30
2018-11-12T07:33:22.275Z,10.70
2018-11-12T07:35:24.773Z,7.87
2018-11-12T07:37:27.082Z,10.27
2018-11-12T07:39:29.263Z,7.23
2018-11-12T07:41:31.428Z,8.03
2018-11-12T07:43:33.606Z,8.43
2018-11-12T07:45:35.806Z,7.17
2018-11-12T07:47:38.069Z,8.93
2018-11-12T07:49:40.218Z,7.23
2018-11-12T07:51:42.490Z,7.80
2018-11-12T07:53:44.650Z,6.20
2018-11-12T07:55:46.926Z,6.97
2018-11-12T07:57:50.539Z,7.83
2018-11-12T07:59:52.702Z,9.83
2018-11-12T08:01:54.853Z,7.13
2018-11-12T08:03:57.230Z,9.23
2018-11-12T08:05:59.386Z,8.10
2018-11-12T08:08:01.541Z,8.30
2018-11-12T08:10:04.634Z,5.97
2018-11-12T08:12:06.901Z,7.10
2018-11-12T08:14:08.985Z,6.90
2018-11-12T08:16:11.294Z,7.30
2018-11-12T08:18:15.697Z,6.20
2018-11-12T08:20:19.122Z,8.83
2018-11-12T08:22:28.286Z,9.43
2018-11-12T08:24:30.489Z,11.27
2018-11-12T08:26:32.686Z,5.60
2018-11-12T08:28:34.837Z,6.90
2018-11-12T08:30:36.982Z,7.60
2018-11-12T08:32:39.250Z,5.17
2018-11-12T08:34:41.386Z,8.50
2018-11-12T08:36:43.650Z,5.67
2018-11-12T08:38:45.913Z,6.00
2018-11-12T08:42:56.961Z,8.57
2018-11-12T08:44:59.358Z,6.40
2018-11-12T08:47:01.502Z,6.20
2018-11-12T08:49:03.803Z,5.87
2018-11-12T08:51:05.914Z,5.87
2018-11-12T08:53:08.175Z,8.67
2018-11-12T08:55:12.280Z,8.10
2018-11-12T08:57:14.674Z,6.23
2018-11-12T08:59:17.020Z,5.57
2018-11-12T09:01:19.015Z,7.50
2018-11-12T09:03:21.409Z,7.03
2018-11-12T09:05:24.738Z,6.87
2018-11-12T09:07:26.934Z,7.07
2018-11-12T09:09:29.210Z,7.53
2018-11-12T09:11:31.373Z,8.93
2018-11-12T09:13:33.998Z,7.57
2018-11-12T09:15:36.001Z,7.30
2018-11-12T09:17:39.256Z,9.80
2018-11-12T09:19:41.456Z,7.97
2018-11-12T09:21:43.604Z,7.80
2018-11-12T09:23:45.763Z,6.90
2018-11-12T09:25:47.922Z,7.47
2018-11-12T09:27:50.840Z,6.70
2018-11-12T09:29:53.354Z,9.63
2018-11-12T09:31:55.518Z,11.07
2018-11-12T09:35:59.806Z,7.50
2018-11-12T09:38:02.933Z,6.50
2018-11-12T09:40:07.219Z,6.60
2018-11-12T09:42:09.382Z,7.73
2018-11-12T09:44:12.386Z,7.00
2018-11-12T09:46:14.533Z,8.50
2018-11-12T09:48:16.666Z,6.67
2018-11-12T09:50:21.158Z,7.67
2018-11-12T09:52:23.337Z,6.20
2018-11-12T09:54:25.569Z,7.57
2018-11-12T09:56:27.729Z,8.37
2018-11-12T09:58:29.881Z,7.70
2018-11-12T10:00:32.362Z,5.97
2018-11-12T10:02:35.450Z,7.30
2018-11-12T10:04:38.204Z,8.33
2018-11-12T10:06:39.496Z,6.40
2018-11-12T10:08:42.684Z,6.13
2018-11-12T10:10:49.670Z,8.40
2018-11-12T10:12:51.011Z,6.10
2018-11-12T10:14:54.850Z,5.90
2018-11-12T10:16:56.827Z,5.67
2018-11-12T10:18:55.582Z,6.27
2018-11-12T10:20:57.737Z,8.10
2018-11-12T10:22:59.858Z,6.00
2018-11-12T10:25:02.586Z,6.60
2018-11-12T10:27:05.090Z,6.63
2018-11-12T10:29:07.223Z,6.37
2018-11-12T10:31:09.391Z,8.10
2018-11-12T10:33:11.768Z,5.30
2018-11-12T10:35:13.928Z,5.40
2018-11-12T10:37:16.068Z,6.97
2018-11-12T10:39:18.257Z,6.17
2018-11-12T10:41:20.419Z,5.30
2018-11-12T10:43:22.558Z,5.93
2018-11-12T10:45:24.954Z,5.40
2018-11-12T10:47:27.090Z,6.90
2018-11-12T10:49:29.438Z,6.00
2018-11-12T10:51:32.952Z,5.00
2018-11-12T10:53:35.188Z,9.80
2018-11-12T10:55:37.349Z,5.40
2018-11-12T10:57:40.726Z,6.97
2018-11-12T10:59:42.948Z,7.87
2018-11-12T11:14:58.829Z,5.80
2018-11-12T11:17:01.236Z,8.43
2018-11-12T11:19:03.452Z,7.50
2018-11-12T11:21:05.693Z,8.30
2018-11-12T11:23:08.048Z,8.00
2018-11-12T11:25:10.270Z,6.43
2018-11-12T11:27:12.467Z,9.73
2018-11-12T11:34:46.020Z,5.90
2018-11-12T11:36:48.292Z,7.20
2018-11-12T11:38:50.485Z,7.57
2018-11-12T11:40:52.742Z,7.83
2018-11-12T11:42:54.913Z,8.10
2018-11-12T11:44:57.112Z,6.63
2018-11-12T11:46:59.446Z,10.40
2018-11-12T11:49:01.777Z,7.33
2018-11-12T11:51:03.882Z,7.63
2018-11-12T11:53:06.144Z,9.60
2018-11-12T11:55:09.975Z,9.10
2018-11-12T11:57:12.212Z,11.10
2018-11-12T11:59:14.434Z,7.27
2018-11-12T12:01:16.638Z,8.67
2018-11-12T12:03:18.970Z,8.20
2018-11-12T12:05:22.206Z,8.53
2018-11-12T12:07:24.472Z,9.23
2018-11-12T12:09:26.655Z,9.17
2018-11-12T12:11:29.050Z,8.90
2018-11-12T12:13:31.249Z,10.40
2018-11-12T12:15:33.514Z,11.80
2018-11-12T12:17:36.022Z,9.70
2018-11-12T12:19:38.227Z,9.30
2018-11-12T12:21:40.433Z,12.30
2018-11-12T12:23:43.294Z,12.23
2018-11-12T12:25:45.589Z,9.00
2018-11-12T12:27:48.291Z,10.90
2018-11-12T12:29:50.627Z,10.00
2018-11-12T12:31:52.967Z,12.10
2018-11-12T12:33:55.260Z,11.40
2018-11-12T12:35:57.538Z,10.23
2018-11-12T12:37:59.684Z,9.50
2018-11-12T12:40:01.865Z,10.03
2018-11-12T12:42:04.090Z,11.07
2018-11-12T12:44:06.515Z,10.47
2018-11-12T12:46:08.752Z,9.23
2018-11-12T12:48:10.926Z,11.37
2018-11-12T12:50:14.156Z,10.47
2018-11-12T12:52:16.394Z,9.93
2018-11-12T12:54:18.559Z,10.27
2018-11-12T12:56:20.999Z,9.90
2018-11-12T12:58:23.578Z,10.17
2018-11-12T13:00:26.599Z,9.33
2018-11-12T13:02:28.853Z,9.77
2018-11-12T13:04:31.094Z,13.20
2018-11-12T13:06:33.286Z,11.20
2018-11-12T13:08:35.494Z,11.00
2018-11-12T13:10:37.785Z,12.57
2018-11-12T13:12:39.973Z,10.73
2018-11-12T13:14:42.254Z,10.80
2018-11-12T13:16:44.759Z,10.77
2018-11-12T13:18:47.011Z,15.07
2018-11-12T13:20:49.229Z,9.60
2018-11-12T13:22:52.002Z,11.33
2018-11-12T13:24:54.169Z,10.27
2018-11-12T13:26:56.338Z,12.37
2018-11-12T13:28:58.659Z,12.30
2018-11-12T13:31:00.979Z,11.97
2018-11-12T13:33:03.133Z,11.43
2018-11-12T13:35:06.062Z,10.73
2018-11-12T13:37:08.303Z,11.53
2018-11-12T13:39:11.727Z,13.63
2018-11-12T13:41:14.014Z,12.67
2018-11-12T13:43:16.239Z,12.10
2018-11-12T13:45:18.465Z,11.30
2018-11-12T13:47:20.658Z,12.30
2018-11-12T13:49:22.908Z,12.37
2018-11-12T13:51:25.077Z,12.57
2018-11-12T13:53:27.300Z,14.83
2018-11-12T13:55:29.531Z,12.70
2018-11-12T13:57:32.006Z,12.10
2018-11-12T13:59:34.230Z,13.50
2018-11-12T14:01:36.522Z,12.67
2018-11-12T14:03:38.870Z,14.00
2018-11-12T14:05:41.139Z,13.20
2018-11-12T14:07:43.818Z,12.27
2018-11-12T14:09:46.099Z,13.47
2018-11-12T14:11:48.278Z,17.33
2018-11-12T14:13:50.525Z,13.57
2018-11-12T14:15:52.664Z,14.40
2018-11-12T14:17:55.442Z,13.27
2018-11-12T14:19:57.746Z,14.13
2018-11-12T14:21:59.918Z,15.53
2018-11-12T14:24:02.475Z,16.20
2018-11-12T14:26:04.978Z,13.73
2018-11-12T14:28:07.261Z,14.10
2018-11-12T14:30:10.487Z,13.53
2018-11-12T14:32:12.813Z,18.47
2018-11-12T14:34:15.035Z,15.17
2018-11-12T14:36:17.247Z,14.73
2018-11-12T14:38:19.524Z,16.90
2018-11-12T14:40:21.722Z,14.47
2018-11-12T14:42:23.926Z,14.63
2018-11-12T14:44:26.327Z,15.03
2018-11-12T14:46:28.639Z,14.97
2018-11-12T14:48:30.826Z,15.77
2018-11-12T14:50:33.670Z,15.23
2018-11-12T14:52:36.011Z,21.40
2018-11-12T14:54:38.258Z,20.00
2018-11-12T14:56:40.473Z,15.40
2018-11-12T14:58:42.698Z,15.57
2018-11-12T15:00:44.870Z,18.00
2018-11-12T15:02:47.059Z,19.03
2018-11-12T15:04:49.224Z,18.53
2018-11-12T15:06:51.506Z,16.20
2018-11-12T15:08:53.748Z,21.67
2018-11-12T15:10:55.961Z,19.17
2018-11-12T15:12:58.230Z,18.50
2018-11-12T15:15:00.612Z,19.40
2018-11-12T15:17:02.803Z,17.00
2018-11-12T15:19:05.019Z,17.80
2018-11-12T15:21:07.369Z,17.30
2018-11-12T15:23:09.675Z,20.03
2018-11-12T15:25:15.530Z,19.77
2018-11-12T15:27:18.031Z,20.30
2018-11-12T15:29:20.363Z,19.50
2018-11-12T15:31:22.582Z,21.70
2018-11-12T15:33:25.033Z,21.90
2018-11-12T15:35:27.289Z,21.40
2018-11-12T15:37:29.471Z,19.90
2018-11-12T15:39:31.754Z,28.53
2018-11-12T15:41:33.995Z,30.43
2018-11-12T15:43:36.205Z,35.37
2018-11-12T15:45:38.555Z,35.73
2018-11-12T15:47:40.963Z,28.97
2018-11-12T15:49:43.175Z,23.47
2018-11-12T15:51:45.390Z,23.93
2018-11-12T15:53:47.850Z,17.93
2018-11-12T15:55:50.115Z,23.13
2018-11-12T15:57:53.466Z,19.50
2018-11-12T15:59:55.706Z,21.53
2018-11-12T16:01:57.890Z,18.43
2018-11-12T16:04:00.094Z,19.03
2018-11-12T16:06:02.745Z,75.40
2018-11-12T16:08:04.907Z,86.07
2018-11-12T16:10:08.166Z,54.23
2018-11-12T16:12:10.680Z,48.90
2018-11-12T16:14:12.835Z,27.43
2018-11-12T16:16:14.994Z,42.33
2018-11-12T16:18:17.272Z,66.33
2018-11-12T16:20:21.010Z,200.13
2018-11-12T16:22:23.198Z,84.37
2018-11-12T16:24:25.746Z,48.43
2018-11-12T16:26:28.082Z,33.90
2018-11-12T16:28:30.275Z,21.97
2018-11-12T16:30:32.471Z,22.40
2018-11-12T16:32:34.775Z,24.70
2018-11-12T16:34:37.003Z,22.63
2018-11-12T16:36:39.252Z,23.67
2018-11-12T16:38:41.467Z,22.47
2018-11-12T16:40:43.670Z,20.40
2018-11-12T16:42:46.800Z,21.57
2018-11-12T16:44:48.983Z,21.70
2018-11-12T16:46:51.244Z,22.73
2018-11-12T16:48:53.718Z,21.40
2018-11-12T16:50:56.048Z,23.03
2018-11-12T16:52:58.242Z,23.37
2018-11-12T16:55:00.517Z,22.50
2018-11-12T16:57:02.821Z,25.80
2018-11-12T16:59:05.075Z,21.57
2018-11-12T17:01:07.643Z,26.43
2018-11-12T17:03:09.806Z,22.10
2018-11-12T17:05:14.418Z,23.23
2018-11-12T17:07:16.626Z,25.83
2018-11-12T17:09:18.805Z,48.10
2018-11-12T17:11:21.086Z,27.83
2018-11-12T17:13:23.539Z,27.53
2018-11-12T17:15:25.887Z,29.83
2018-11-12T17:17:28.180Z,28.43
2018-11-12T17:19:30.412Z,24.67
2018-11-12T17:21:32.606Z,27.03
2018-11-12T17:23:34.794Z,28.00
2018-11-12T17:25:37.061Z,28.33
2018-11-12T17:27:39.273Z,21.30
2018-11-12T17:29:41.480Z,25.60
2018-11-12T17:31:43.755Z,30.80
2018-11-12T17:33:45.969Z,27.50
2018-11-12T17:35:49.299Z,26.47
2018-11-12T17:37:51.674Z,29.57
2018-11-12T17:44:42.211Z,31.83
2018-11-12T17:46:44.680Z,33.03
2018-11-12T17:48:46.967Z,40.23
2018-11-12T17:50:49.299Z,38.33
2018-11-12T17:52:51.480Z,46.30
2018-11-12T17:54:53.698Z,47.00
2018-11-12T17:56:56.147Z,33.60
2018-11-12T17:58:58.355Z,32.30
2018-11-12T18:01:00.624Z,30.57
2018-11-12T18:03:02.845Z,32.00
2018-11-12T18:05:05.095Z,31.37
2018-11-12T18:07:07.429Z,36.80
2018-11-12T18:09:10.703Z,56.13
2018-11-12T18:11:12.927Z,45.60
2018-11-12T18:13:15.175Z,31.27
2018-11-12T18:15:18.662Z,30.80
2018-11-12T18:17:20.873Z,33.27
2018-11-12T18:19:23.088Z,32.50
2018-11-12T18:21:25.574Z,26.87
2018-11-12T18:23:27.815Z,31.97
2018-11-12T18:25:30.145Z,26.57
2018-11-12T18:27:32.635Z,27.20
2018-11-12T18:29:34.923Z,26.50
2018-11-12T18:31:37.231Z,27.60
2018-11-12T18:33:39.429Z,26.73
2018-11-12T18:35:41.645Z,27.13
2018-11-12T18:37:48.941Z,30.47
2018-11-12T18:39:51.268Z,26.23
2018-11-12T18:41:53.567Z,31.03
2018-11-12T18:43:55.856Z,28.03
2018-11-12T18:45:58.588Z,34.20
2018-11-12T18:48:01.652Z,26.30
2018-11-12T18:50:07.682Z,24.60
2018-11-12T18:52:10.313Z,25.63
2018-11-12T18:54:12.690Z,23.07
2018-11-12T18:56:14.993Z,26.90
2018-11-12T18:58:17.421Z,28.23
2018-11-12T19:00:21.033Z,26.87
2018-11-12T19:02:23.289Z,27.30
2018-11-12T19:04:25.609Z,26.50
2018-11-12T19:06:27.820Z,28.83
2018-11-12T19:08:30.069Z,25.67
2018-11-12T19:10:33.312Z,27.10
2018-11-12T19:12:35.570Z,27.77
2018-11-12T19:14:37.768Z,24.70
2018-11-12T19:16:40.104Z,23.60
2018-11-12T19:18:42.297Z,28.77
2018-11-12T19:20:44.495Z,25.60
2018-11-12T19:22:47.024Z,27.43
2018-11-12T19:24:49.260Z,26.73
2018-11-12T19:26:51.491Z,27.03
2018-11-12T19:28:58.375Z,31.00
2018-11-12T19:31:03.311Z,31.93
2018-11-12T19:33:05.766Z,30.80
2018-11-12T19:35:09.306Z,30.57
2018-11-12T19:37:11.920Z,35.17
2018-11-12T19:39:14.137Z,39.10
2018-11-12T19:41:16.367Z,32.13
2018-11-12T19:43:18.574Z,31.00
2018-11-12T19:45:21.695Z,40.37
2018-11-12T19:47:24.476Z,42.10
2018-11-12T19:49:26.935Z,35.33
2018-11-12T19:51:29.142Z,35.20
2018-11-12T19:53:31.344Z,36.30
2018-11-12T19:55:33.579Z,37.87
2018-11-12T19:57:36.058Z,34.37
2018-11-12T19:59:40.380Z,31.67
2018-11-12T20:01:44.030Z,37.70
2018-11-12T20:03:47.577Z,37.80
2018-11-12T20:05:50.006Z,42.20
2018-11-12T20:07:52.292Z,37.13
2018-11-12T20:15:10.183Z,37.60
2018-11-12T20:17:14.990Z,36.43
2018-11-12T20:19:18.150Z,43.20
2018-11-12T20:21:20.813Z,43.17
2018-11-12T20:23:25.434Z,42.90
2018-11-12T20:25:27.845Z,43.27
2018-11-12T20:27:30.890Z,47.67
2018-11-12T20:29:33.799Z,41.50
2018-11-12T20:31:39.725Z,40.47
2018-11-12T20:33:43.006Z,42.57
2018-11-12T20:35:45.232Z,42.77
2018-11-12T21:43:24.516Z,36.40
2018-11-12T21:45:27.951Z,41.20
2018-11-12T21:47:30.183Z,44.27
2018-11-12T21:49:32.456Z,42.70
2018-11-12T21:51:34.594Z,41.17
2018-11-12T21:53:36.789Z,40.50
2018-11-12T21:55:39.243Z,41.07
2018-11-12T21:57:42.057Z,40.93
2018-11-12T21:59:44.292Z,44.57
2018-11-12T22:01:46.722Z,39.50
2018-11-12T22:03:48.897Z,40.30
2018-11-12T22:05:51.082Z,39.20
2018-11-12T22:07:53.325Z,40.80
2018-11-12T22:09:55.614Z,39.17
2018-11-12T22:11:57.855Z,38.10
2018-11-12T22:14:00.103Z,36.10
2018-11-12T22:16:02.343Z,42.90
2018-11-12T22:18:05.028Z,36.67
2018-11-12T22:20:08.331Z,33.20
2018-11-12T22:22:10.583Z,37.90
2018-11-12T22:24:12.941Z,35.17
2018-11-12T22:26:15.121Z,35.23
2018-11-12T22:28:17.944Z,31.87
2018-11-12T22:30:21.394Z,33.67
2018-11-12T22:32:23.792Z,33.77
2018-11-12T22:34:26.091Z,35.87
2018-11-12T22:36:28.270Z,29.07
2018-11-12T22:38:30.830Z,32.33
2018-11-12T22:40:32.992Z,27.40
2018-11-12T22:42:35.355Z,30.10
2018-11-12T22:44:37.806Z,29.03
2018-11-12T22:46:40.035Z,26.47
2018-11-12T22:48:42.252Z,30.40
2018-11-12T22:50:44.633Z,28.57
2018-11-12T22:52:46.925Z,28.10
2018-11-12T22:54:49.148Z,29.03
2018-11-12T22:56:51.352Z,29.00
2018-11-12T22:58:53.547Z,28.70
2018-11-12T23:00:55.817Z,30.30
2018-11-12T23:02:59.607Z,28.53
2018-11-12T23:05:01.884Z,31.97
2018-11-12T23:07:05.451Z,30.97
2018-11-12T23:09:20.218Z,28.07
2018-11-12T23:11:22.361Z,29.37
2018-11-12T23:13:24.750Z,28.50
2018-11-12T23:15:27.007Z,27.10
2018-11-12T23:17:29.183Z,27.93
2018-11-12T23:19:31.387Z,29.63
2018-11-12T23:21:33.493Z,27.93
2018-11-12T23:23:35.655Z,30.67
2018-11-12T23:25:37.810Z,30.73
2018-11-12T23:27:40.562Z,29.77
2018-11-12T23:29:42.713Z,31.70
2018-11-12T23:31:44.874Z,28.00
2018-11-12T23:33:47.458Z,27.77
2018-11-12T23:35:49.621Z,31.17
2018-11-12T23:37:51.755Z,27.43
2018-11-12T23:39:53.910Z,28.30
2018-11-12T23:41:56.341Z,26.80
2018-11-12T23:43:58.494Z,31.27
2018-11-12T23:46:00.643Z,29.40
2018-11-12T23:48:02.921Z,31.47
2018-11-12T23:50:06.482Z,31.77
2018-11-12T23:52:08.746Z,32.00
2018-11-12T23:54:11.491Z,32.43
2018-11-12T23:56:13.657Z,29.10
2018-11-12T23:58:15.816Z,31.37
